sensor_id;sensor_type;location;lat;lon;timestamp;temperature;humidity
816;DHT22;25928;51.062;13.752;2023-04-25T00:00:26;12.00;1.00
816;DHT22;25928;51.062;13.752;2023-04-25T00:02:52;11.90;1.00
816;DHT22;25928;51.062;13.752;2023-04-25T00:05:18;12.00;1.00
816;DHT22;25928;51.062;13.752;2023-04-25T00:07:45;12.10;1.00
816;DHT22;25928;51.062;13.752;2023-04-25T00:10:11;12.10;1.00
816;DHT22;25928;51.062;13.752;2023-04-25T00:12:37;12.20;1.00
816;DHT22;25928;51.062;13.752;2023-04-25T00:15:04;12.30;1.00
816;DHT22;25928;51.062;13.752;2023-04-25T00:17:30;12.20;1.00
816;DHT22;25928;51.062;13.752;2023-04-25T00:19:56;12.10;1.00
816;DHT22;25928;51.062;13.752;2023-04-25T00:22:23;12.20;1.00
816;DHT22;25928;51.062;13.752;2023-04-25T00:24:49;12.30;1.00
816;DHT22;25928;51.062;13.752;2023-04-25T00:27:15;12.20;1.00
816;DHT22;25928;51.062;13.752;2023-04-25T00:29:41;12.10;1.00
816;DHT22;25928;51.062;13.752;2023-04-25T00:32:06;12.10;1.00
816;DHT22;25928;51.062;13.752;2023-04-25T00:34:32;12.10;1.00
816;DHT22;25928;51.062;13.752;2023-04-25T00:36:58;11.90;1.00
816;DHT22;25928;51.062;13.752;2023-04-25T00:39:23;11.90;1.00
816;DHT22;25928;51.062;13.752;2023-04-25T00:41:50;12.00;1.00
816;DHT22;25928;51.062;13.752;2023-04-25T00:44:18;12.10;1.00
816;DHT22;25928;51.062;13.752;2023-04-25T00:46:49;12.00;1.00
816;DHT22;25928;51.062;13.752;2023-04-25T00:49:15;12.00;1.00
816;DHT22;25928;51.062;13.752;2023-04-25T00:51:42;12.00;1.00
816;DHT22;25928;51.062;13.752;2023-04-25T00:54:10;11.90;1.00
816;DHT22;25928;51.062;13.752;2023-04-25T00:56:37;11.80;1.00
816;DHT22;25928;51.062;13.752;2023-04-25T00:59:03;11.80;1.00
816;DHT22;25928;51.062;13.752;2023-04-25T01:01:29;11.70;1.00
816;DHT22;25928;51.062;13.752;2023-04-25T01:03:55;11.50;1.00
816;DHT22;25928;51.062;13.752;2023-04-25T01:06:22;11.40;1.00
816;DHT22;25928;51.062;13.752;2023-04-25T01:08:47;11.30;1.00
816;DHT22;25928;51.062;13.752;2023-04-25T01:11:13;11.30;1.00
816;DHT22;25928;51.062;13.752;2023-04-25T01:13:39;11.20;1.00
816;DHT22;25928;51.062;13.752;2023-04-25T01:16:05;11.10;1.00
816;DHT22;25928;51.062;13.752;2023-04-25T01:18:31;11.20;1.00
816;DHT22;25928;51.062;13.752;2023-04-25T01:21:06;11.30;1.00
816;DHT22;25928;51.062;13.752;2023-04-25T01:23:33;11.20;1.00
816;DHT22;25928;51.062;13.752;2023-04-25T01:25:59;11.20;1.00
816;DHT22;25928;51.062;13.752;2023-04-25T01:28:25;11.10;1.00
816;DHT22;25928;51.062;13.752;2023-04-25T01:30:51;11.00;1.00
816;DHT22;25928;51.062;13.752;2023-04-25T01:33:17;11.00;1.00
816;DHT22;25928;51.062;13.752;2023-04-25T01:35:44;11.00;1.00
816;DHT22;25928;51.062;13.752;2023-04-25T01:38:11;11.00;1.00
816;DHT22;25928;51.062;13.752;2023-04-25T01:40:39;10.90;1.00
816;DHT22;25928;51.062;13.752;2023-04-25T01:43:05;10.90;1.00
816;DHT22;25928;51.062;13.752;2023-04-25T01:45:31;10.90;1.00
816;DHT22;25928;51.062;13.752;2023-04-25T01:47:58;10.70;1.00
816;DHT22;25928;51.062;13.752;2023-04-25T01:50:25;10.70;1.00
816;DHT22;25928;51.062;13.752;2023-04-25T01:52:51;10.60;1.00
816;DHT22;25928;51.062;13.752;2023-04-25T01:55:16;10.60;1.00
816;DHT22;25928;51.062;13.752;2023-04-25T01:57:42;10.60;1.00
816;DHT22;25928;51.062;13.752;2023-04-25T02:00:08;10.50;1.00
816;DHT22;25928;51.062;13.752;2023-04-25T02:02:35;10.60;1.00
816;DHT22;25928;51.062;13.752;2023-04-25T02:05:01;10.60;1.00
816;DHT22;25928;51.062;13.752;2023-04-25T02:07:26;10.60;1.00
816;DHT22;25928;51.062;13.752;2023-04-25T02:09:52;10.60;1.00
816;DHT22;25928;51.062;13.752;2023-04-25T02:12:18;10.60;1.00
816;DHT22;25928;51.062;13.752;2023-04-25T02:14:43;10.50;1.00
816;DHT22;25928;51.062;13.752;2023-04-25T02:17:09;10.60;1.00
816;DHT22;25928;51.062;13.752;2023-04-25T02:19:35;10.60;1.00
816;DHT22;25928;51.062;13.752;2023-04-25T02:22:01;10.50;1.00
816;DHT22;25928;51.062;13.752;2023-04-25T02:24:26;10.50;1.00
816;DHT22;25928;51.062;13.752;2023-04-25T02:26:53;10.50;1.00
816;DHT22;25928;51.062;13.752;2023-04-25T02:29:20;10.40;1.00
816;DHT22;25928;51.062;13.752;2023-04-25T02:31:46;10.60;1.00
816;DHT22;25928;51.062;13.752;2023-04-25T02:34:12;10.60;1.00
816;DHT22;25928;51.062;13.752;2023-04-25T02:36:37;10.50;1.00
816;DHT22;25928;51.062;13.752;2023-04-25T02:39:03;10.50;1.00
816;DHT22;25928;51.062;13.752;2023-04-25T02:41:29;10.50;1.00
816;DHT22;25928;51.062;13.752;2023-04-25T02:43:54;10.50;1.00
816;DHT22;25928;51.062;13.752;2023-04-25T02:46:20;10.50;1.00
816;DHT22;25928;51.062;13.752;2023-04-25T02:48:46;10.40;1.00
816;DHT22;25928;51.062;13.752;2023-04-25T02:51:11;10.40;1.00
816;DHT22;25928;51.062;13.752;2023-04-25T02:53:37;10.40;1.00
816;DHT22;25928;51.062;13.752;2023-04-25T02:56:03;10.40;1.00
816;DHT22;25928;51.062;13.752;2023-04-25T02:58:29;10.30;1.00
816;DHT22;25928;51.062;13.752;2023-04-25T03:00:54;10.40;1.00
816;DHT22;25928;51.062;13.752;2023-04-25T03:03:20;10.30;1.00
816;DHT22;25928;51.062;13.752;2023-04-25T03:05:49;10.40;1.00
816;DHT22;25928;51.062;13.752;2023-04-25T03:08:16;10.40;1.00
816;DHT22;25928;51.062;13.752;2023-04-25T03:10:42;10.30;1.00
816;DHT22;25928;51.062;13.752;2023-04-25T03:13:07;10.20;1.00
816;DHT22;25928;51.062;13.752;2023-04-25T03:15:33;10.20;1.00
816;DHT22;25928;51.062;13.752;2023-04-25T03:17:59;10.20;1.00
816;DHT22;25928;51.062;13.752;2023-04-25T03:20:24;10.10;1.00
816;DHT22;25928;51.062;13.752;2023-04-25T03:22:50;10.20;1.00
816;DHT22;25928;51.062;13.752;2023-04-25T03:25:16;10.10;1.00
816;DHT22;25928;51.062;13.752;2023-04-25T03:27:41;10.00;1.00
816;DHT22;25928;51.062;13.752;2023-04-25T03:30:07;9.90;1.00
816;DHT22;25928;51.062;13.752;2023-04-25T03:32:33;9.90;1.00
816;DHT22;25928;51.062;13.752;2023-04-25T03:34:59;9.80;1.00
816;DHT22;25928;51.062;13.752;2023-04-25T03:37:25;9.70;1.00
816;DHT22;25928;51.062;13.752;2023-04-25T03:39:50;9.70;1.00
816;DHT22;25928;51.062;13.752;2023-04-25T03:42:16;9.80;1.00
816;DHT22;25928;51.062;13.752;2023-04-25T03:44:43;9.90;1.00
816;DHT22;25928;51.062;13.752;2023-04-25T03:47:08;9.80;1.00
816;DHT22;25928;51.062;13.752;2023-04-25T03:49:34;9.70;1.00
816;DHT22;25928;51.062;13.752;2023-04-25T03:52:01;9.80;1.00
816;DHT22;25928;51.062;13.752;2023-04-25T03:54:27;9.80;1.00
816;DHT22;25928;51.062;13.752;2023-04-25T03:56:52;9.80;1.00
816;DHT22;25928;51.062;13.752;2023-04-25T03:59:18;9.90;1.00
816;DHT22;25928;51.062;13.752;2023-04-25T04:01:44;9.90;1.00
816;DHT22;25928;51.062;13.752;2023-04-25T04:04:09;9.90;1.00
816;DHT22;25928;51.062;13.752;2023-04-25T04:06:35;9.80;1.00
816;DHT22;25928;51.062;13.752;2023-04-25T04:09:02;9.70;1.00
816;DHT22;25928;51.062;13.752;2023-04-25T04:11:28;9.70;1.00
816;DHT22;25928;51.062;13.752;2023-04-25T04:13:54;9.60;1.00
816;DHT22;25928;51.062;13.752;2023-04-25T04:16:20;9.70;1.00
816;DHT22;25928;51.062;13.752;2023-04-25T04:18:46;9.80;1.00
816;DHT22;25928;51.062;13.752;2023-04-25T04:21:11;9.80;1.00
816;DHT22;25928;51.062;13.752;2023-04-25T04:23:37;10.00;1.00
816;DHT22;25928;51.062;13.752;2023-04-25T04:26:03;10.10;1.00
816;DHT22;25928;51.062;13.752;2023-04-25T04:28:28;10.20;1.00
816;DHT22;25928;51.062;13.752;2023-04-25T04:30:54;10.20;1.00
816;DHT22;25928;51.062;13.752;2023-04-25T04:33:20;10.20;1.00
816;DHT22;25928;51.062;13.752;2023-04-25T04:35:46;10.20;1.00
816;DHT22;25928;51.062;13.752;2023-04-25T04:38:13;10.20;1.00
816;DHT22;25928;51.062;13.752;2023-04-25T04:40:41;10.10;1.00
816;DHT22;25928;51.062;13.752;2023-04-25T04:43:08;10.10;1.00
816;DHT22;25928;51.062;13.752;2023-04-25T04:45:36;10.00;1.00
816;DHT22;25928;51.062;13.752;2023-04-25T04:48:05;10.00;1.00
816;DHT22;25928;51.062;13.752;2023-04-25T04:50:31;10.20;1.00
816;DHT22;25928;51.062;13.752;2023-04-25T04:52:58;10.20;1.00
816;DHT22;25928;51.062;13.752;2023-04-25T04:55:23;10.20;1.00
816;DHT22;25928;51.062;13.752;2023-04-25T04:57:49;10.10;1.00
816;DHT22;25928;51.062;13.752;2023-04-25T05:00:16;10.20;1.00
816;DHT22;25928;51.062;13.752;2023-04-25T05:02:42;10.50;1.00
816;DHT22;25928;51.062;13.752;2023-04-25T05:05:07;10.40;1.00
816;DHT22;25928;51.062;13.752;2023-04-25T05:07:34;10.50;1.00
816;DHT22;25928;51.062;13.752;2023-04-25T05:09:59;10.50;1.00
816;DHT22;25928;51.062;13.752;2023-04-25T05:12:25;10.50;1.00
816;DHT22;25928;51.062;13.752;2023-04-25T05:14:51;10.50;1.00
816;DHT22;25928;51.062;13.752;2023-04-25T05:17:16;10.40;1.00
816;DHT22;25928;51.062;13.752;2023-04-25T05:19:42;10.50;1.00
816;DHT22;25928;51.062;13.752;2023-04-25T05:22:07;10.40;1.00
816;DHT22;25928;51.062;13.752;2023-04-25T05:24:33;10.40;1.00
816;DHT22;25928;51.062;13.752;2023-04-25T05:26:59;10.50;1.00
816;DHT22;25928;51.062;13.752;2023-04-25T05:29:24;12.00;1.00
816;DHT22;25928;51.062;13.752;2023-04-25T05:31:50;10.50;1.00
816;DHT22;25928;51.062;13.752;2023-04-25T05:34:15;10.60;1.00
816;DHT22;25928;51.062;13.752;2023-04-25T05:36:42;10.60;1.00
816;DHT22;25928;51.062;13.752;2023-04-25T05:39:07;10.60;1.00
816;DHT22;25928;51.062;13.752;2023-04-25T05:41:34;10.60;1.00
816;DHT22;25928;51.062;13.752;2023-04-25T05:43:59;10.60;1.00
816;DHT22;25928;51.062;13.752;2023-04-25T05:46:25;10.50;1.00
816;DHT22;25928;51.062;13.752;2023-04-25T05:48:51;10.30;1.00
816;DHT22;25928;51.062;13.752;2023-04-25T05:51:16;10.50;1.00
816;DHT22;25928;51.062;13.752;2023-04-25T05:53:43;10.50;1.00
816;DHT22;25928;51.062;13.752;2023-04-25T05:56:09;10.50;1.00
816;DHT22;25928;51.062;13.752;2023-04-25T05:58:35;10.50;1.00
816;DHT22;25928;51.062;13.752;2023-04-25T06:01:01;10.50;1.00
816;DHT22;25928;51.062;13.752;2023-04-25T06:03:27;10.60;1.00
816;DHT22;25928;51.062;13.752;2023-04-25T06:05:52;10.60;99.90
816;DHT22;25928;51.062;13.752;2023-04-25T06:08:18;10.70;99.90
816;DHT22;25928;51.062;13.752;2023-04-25T06:10:44;10.80;99.90
816;DHT22;25928;51.062;13.752;2023-04-25T06:13:10;11.00;99.90
816;DHT22;25928;51.062;13.752;2023-04-25T06:15:35;11.10;99.90
816;DHT22;25928;51.062;13.752;2023-04-25T06:18:01;11.00;99.90
816;DHT22;25928;51.062;13.752;2023-04-25T06:20:27;11.00;99.90
816;DHT22;25928;51.062;13.752;2023-04-25T06:22:52;11.00;99.90
816;DHT22;25928;51.062;13.752;2023-04-25T06:25:18;10.80;99.90
816;DHT22;25928;51.062;13.752;2023-04-25T06:27:44;10.60;99.90
816;DHT22;25928;51.062;13.752;2023-04-25T06:30:10;10.60;99.90
816;DHT22;25928;51.062;13.752;2023-04-25T06:32:37;10.70;99.90
816;DHT22;25928;51.062;13.752;2023-04-25T06:35:03;10.70;99.90
816;DHT22;25928;51.062;13.752;2023-04-25T06:37:29;10.90;99.90
816;DHT22;25928;51.062;13.752;2023-04-25T06:39:55;11.10;99.90
816;DHT22;25928;51.062;13.752;2023-04-25T06:42:21;11.40;99.90
816;DHT22;25928;51.062;13.752;2023-04-25T06:44:46;11.60;99.90
816;DHT22;25928;51.062;13.752;2023-04-25T06:47:12;11.90;99.90
816;DHT22;25928;51.062;13.752;2023-04-25T06:49:37;12.00;99.90
816;DHT22;25928;51.062;13.752;2023-04-25T06:52:03;12.00;99.90
816;DHT22;25928;51.062;13.752;2023-04-25T06:54:29;12.10;99.90
816;DHT22;25928;51.062;13.752;2023-04-25T06:56:55;12.00;99.90
816;DHT22;25928;51.062;13.752;2023-04-25T06:59:21;12.00;99.90
816;DHT22;25928;51.062;13.752;2023-04-25T07:01:47;12.40;99.90
816;DHT22;25928;51.062;13.752;2023-04-25T07:04:12;12.60;99.90
816;DHT22;25928;51.062;13.752;2023-04-25T07:06:38;12.50;99.90
816;DHT22;25928;51.062;13.752;2023-04-25T07:09:08;12.30;99.90
816;DHT22;25928;51.062;13.752;2023-04-25T07:11:35;12.20;99.90
816;DHT22;25928;51.062;13.752;2023-04-25T07:14:01;12.30;99.90
816;DHT22;25928;51.062;13.752;2023-04-25T07:16:27;12.50;99.90
816;DHT22;25928;51.062;13.752;2023-04-25T07:18:52;12.50;99.90
816;DHT22;25928;51.062;13.752;2023-04-25T07:21:18;12.40;99.90
816;DHT22;25928;51.062;13.752;2023-04-25T07:23:44;12.20;99.90
816;DHT22;25928;51.062;13.752;2023-04-25T07:26:10;12.00;99.90
816;DHT22;25928;51.062;13.752;2023-04-25T07:28:36;11.90;99.90
816;DHT22;25928;51.062;13.752;2023-04-25T07:31:02;11.90;99.90
816;DHT22;25928;51.062;13.752;2023-04-25T07:33:28;12.20;99.90
816;DHT22;25928;51.062;13.752;2023-04-25T07:35:54;12.70;99.90
816;DHT22;25928;51.062;13.752;2023-04-25T07:38:21;12.60;99.90
816;DHT22;25928;51.062;13.752;2023-04-25T07:40:48;12.20;99.90
816;DHT22;25928;51.062;13.752;2023-04-25T07:43:13;12.10;99.90
816;DHT22;25928;51.062;13.752;2023-04-25T07:45:45;12.10;99.90
816;DHT22;25928;51.062;13.752;2023-04-25T07:48:10;12.10;99.90
816;DHT22;25928;51.062;13.752;2023-04-25T07:50:36;12.20;99.90
816;DHT22;25928;51.062;13.752;2023-04-25T07:53:01;12.40;99.90
816;DHT22;25928;51.062;13.752;2023-04-25T07:55:27;12.40;99.90
816;DHT22;25928;51.062;13.752;2023-04-25T07:57:53;12.70;99.90
816;DHT22;25928;51.062;13.752;2023-04-25T08:00:19;13.00;99.90
816;DHT22;25928;51.062;13.752;2023-04-25T08:02:45;13.30;99.90
816;DHT22;25928;51.062;13.752;2023-04-25T08:05:11;13.80;99.90
816;DHT22;25928;51.062;13.752;2023-04-25T08:07:40;14.10;99.90
816;DHT22;25928;51.062;13.752;2023-04-25T08:10:07;14.10;99.90
816;DHT22;25928;51.062;13.752;2023-04-25T08:12:32;13.80;99.90
816;DHT22;25928;51.062;13.752;2023-04-25T08:14:58;13.30;99.90
816;DHT22;25928;51.062;13.752;2023-04-25T08:17:24;13.30;99.90
816;DHT22;25928;51.062;13.752;2023-04-25T08:19:49;13.50;99.90
816;DHT22;25928;51.062;13.752;2023-04-25T08:22:15;13.60;99.90
816;DHT22;25928;51.062;13.752;2023-04-25T08:24:41;13.10;99.90
816;DHT22;25928;51.062;13.752;2023-04-25T08:27:07;13.00;99.90
816;DHT22;25928;51.062;13.752;2023-04-25T08:29:34;12.70;99.90
816;DHT22;25928;51.062;13.752;2023-04-25T08:32:00;13.10;99.90
816;DHT22;25928;51.062;13.752;2023-04-25T08:34:26;13.20;99.90
816;DHT22;25928;51.062;13.752;2023-04-25T08:36:52;13.40;99.90
816;DHT22;25928;51.062;13.752;2023-04-25T08:39:17;13.30;99.90
816;DHT22;25928;51.062;13.752;2023-04-25T08:41:43;12.90;99.90
816;DHT22;25928;51.062;13.752;2023-04-25T08:44:13;12.90;99.90
816;DHT22;25928;51.062;13.752;2023-04-25T08:46:40;13.10;99.90
816;DHT22;25928;51.062;13.752;2023-04-25T08:49:07;13.20;99.90
816;DHT22;25928;51.062;13.752;2023-04-25T08:51:36;13.10;99.90
816;DHT22;25928;51.062;13.752;2023-04-25T08:54:10;13.00;99.90
816;DHT22;25928;51.062;13.752;2023-04-25T08:56:39;12.80;99.90
816;DHT22;25928;51.062;13.752;2023-04-25T08:59:06;12.80;99.90
816;DHT22;25928;51.062;13.752;2023-04-25T09:01:34;13.10;99.90
816;DHT22;25928;51.062;13.752;2023-04-25T09:04:00;13.30;99.90
816;DHT22;25928;51.062;13.752;2023-04-25T09:06:28;13.60;99.90
816;DHT22;25928;51.062;13.752;2023-04-25T09:08:54;13.70;99.90
816;DHT22;25928;51.062;13.752;2023-04-25T09:11:19;13.60;99.90
816;DHT22;25928;51.062;13.752;2023-04-25T09:13:45;13.60;99.90
816;DHT22;25928;51.062;13.752;2023-04-25T09:16:11;13.30;99.90
816;DHT22;25928;51.062;13.752;2023-04-25T09:18:37;13.20;99.90
816;DHT22;25928;51.062;13.752;2023-04-25T09:21:08;13.30;99.90
816;DHT22;25928;51.062;13.752;2023-04-25T09:23:43;13.20;99.90
816;DHT22;25928;51.062;13.752;2023-04-25T09:26:09;13.30;99.90
816;DHT22;25928;51.062;13.752;2023-04-25T09:28:35;13.30;99.90
816;DHT22;25928;51.062;13.752;2023-04-25T09:31:01;13.40;99.90
816;DHT22;25928;51.062;13.752;2023-04-25T09:33:29;13.50;99.90
816;DHT22;25928;51.062;13.752;2023-04-25T09:36:07;13.30;99.90
816;DHT22;25928;51.062;13.752;2023-04-25T09:38:41;13.20;99.90
816;DHT22;25928;51.062;13.752;2023-04-25T09:41:08;12.90;99.90
816;DHT22;25928;51.062;13.752;2023-04-25T09:43:35;12.70;99.90
816;DHT22;25928;51.062;13.752;2023-04-25T09:46:01;12.60;99.90
816;DHT22;25928;51.062;13.752;2023-04-25T09:48:27;12.30;99.90
816;DHT22;25928;51.062;13.752;2023-04-25T09:51:10;12.10;99.90
816;DHT22;25928;51.062;13.752;2023-04-25T09:53:38;12.00;99.90
816;DHT22;25928;51.062;13.752;2023-04-25T09:56:05;12.00;99.90
816;DHT22;25928;51.062;13.752;2023-04-25T09:58:33;12.20;99.90
816;DHT22;25928;51.062;13.752;2023-04-25T10:01:06;12.40;99.90
816;DHT22;25928;51.062;13.752;2023-04-25T10:03:34;12.60;99.90
816;DHT22;25928;51.062;13.752;2023-04-25T10:06:01;12.80;99.90
816;DHT22;25928;51.062;13.752;2023-04-25T10:08:31;12.90;99.90
816;DHT22;25928;51.062;13.752;2023-04-25T10:11:02;12.90;99.90
816;DHT22;25928;51.062;13.752;2023-04-25T10:13:29;13.00;99.90
816;DHT22;25928;51.062;13.752;2023-04-25T10:15:57;13.20;99.90
816;DHT22;25928;51.062;13.752;2023-04-25T10:18:25;13.30;99.90
816;DHT22;25928;51.062;13.752;2023-04-25T10:20:56;13.30;99.90
816;DHT22;25928;51.062;13.752;2023-04-25T10:23:23;13.50;99.90
816;DHT22;25928;51.062;13.752;2023-04-25T10:25:50;13.60;99.90
816;DHT22;25928;51.062;13.752;2023-04-25T10:28:16;13.60;99.90
816;DHT22;25928;51.062;13.752;2023-04-25T10:33:40;13.40;99.90
816;DHT22;25928;51.062;13.752;2023-04-25T10:36:12;13.40;99.90
816;DHT22;25928;51.062;13.752;2023-04-25T10:38:38;13.20;99.90
816;DHT22;25928;51.062;13.752;2023-04-25T10:41:06;13.20;99.90
816;DHT22;25928;51.062;13.752;2023-04-25T10:43:34;13.30;99.90
816;DHT22;25928;51.062;13.752;2023-04-25T10:46:02;13.50;99.90
816;DHT22;25928;51.062;13.752;2023-04-25T10:48:29;13.40;99.90
816;DHT22;25928;51.062;13.752;2023-04-25T10:51:08;13.50;99.90
816;DHT22;25928;51.062;13.752;2023-04-25T10:53:35;13.60;99.90
816;DHT22;25928;51.062;13.752;2023-04-25T10:56:08;13.60;99.90
816;DHT22;25928;51.062;13.752;2023-04-25T10:58:34;13.60;99.90
816;DHT22;25928;51.062;13.752;2023-04-25T11:01:01;13.40;99.90
816;DHT22;25928;51.062;13.752;2023-04-25T11:03:27;13.10;99.90
816;DHT22;25928;51.062;13.752;2023-04-25T11:05:52;12.80;99.90
816;DHT22;25928;51.062;13.752;2023-04-25T11:08:32;12.60;99.90
816;DHT22;25928;51.062;13.752;2023-04-25T11:11:02;12.40;99.90
816;DHT22;25928;51.062;13.752;2023-04-25T11:13:31;12.40;99.90
816;DHT22;25928;51.062;13.752;2023-04-25T11:15:56;12.30;99.90
816;DHT22;25928;51.062;13.752;2023-04-25T11:18:26;12.40;99.90
816;DHT22;25928;51.062;13.752;2023-04-25T11:20:52;12.20;99.90
816;DHT22;25928;51.062;13.752;2023-04-25T11:23:17;12.10;99.90
816;DHT22;25928;51.062;13.752;2023-04-25T11:25:44;12.10;99.90
816;DHT22;25928;51.062;13.752;2023-04-25T11:28:09;12.10;99.90
816;DHT22;25928;51.062;13.752;2023-04-25T11:30:35;12.10;99.90
816;DHT22;25928;51.062;13.752;2023-04-25T11:33:01;12.30;99.90
816;DHT22;25928;51.062;13.752;2023-04-25T11:35:28;12.60;99.90
816;DHT22;25928;51.062;13.752;2023-04-25T11:37:54;12.50;99.90
816;DHT22;25928;51.062;13.752;2023-04-25T11:40:20;12.70;99.90
816;DHT22;25928;51.062;13.752;2023-04-25T11:42:47;12.90;99.90
816;DHT22;25928;51.062;13.752;2023-04-25T11:45:13;12.60;99.90
816;DHT22;25928;51.062;13.752;2023-04-25T11:47:39;12.70;99.90
816;DHT22;25928;51.062;13.752;2023-04-25T11:50:06;12.80;99.90
816;DHT22;25928;51.062;13.752;2023-04-25T11:52:37;12.90;99.90
816;DHT22;25928;51.062;13.752;2023-04-25T11:55:12;13.10;99.90
816;DHT22;25928;51.062;13.752;2023-04-25T11:57:39;13.70;99.90
816;DHT22;25928;51.062;13.752;2023-04-25T12:02:35;13.90;99.90
816;DHT22;25928;51.062;13.752;2023-04-25T12:05:01;13.90;99.90
816;DHT22;25928;51.062;13.752;2023-04-25T12:07:30;13.20;99.90
816;DHT22;25928;51.062;13.752;2023-04-25T12:09:55;12.90;99.90
816;DHT22;25928;51.062;13.752;2023-04-25T12:12:21;13.10;99.90
816;DHT22;25928;51.062;13.752;2023-04-25T12:14:47;13.10;99.90
816;DHT22;25928;51.062;13.752;2023-04-25T12:17:17;13.10;99.90
816;DHT22;25928;51.062;13.752;2023-04-25T12:19:42;12.80;99.90
816;DHT22;25928;51.062;13.752;2023-04-25T12:22:23;12.20;99.90
816;DHT22;25928;51.062;13.752;2023-04-25T12:24:49;12.10;99.90
816;DHT22;25928;51.062;13.752;2023-04-25T12:27:16;12.10;99.90
816;DHT22;25928;51.062;13.752;2023-04-25T12:29:54;12.20;99.90
816;DHT22;25928;51.062;13.752;2023-04-25T12:32:21;12.60;99.90
816;DHT22;25928;51.062;13.752;2023-04-25T12:34:46;12.80;99.90
816;DHT22;25928;51.062;13.752;2023-04-25T12:37:12;12.90;99.90
816;DHT22;25928;51.062;13.752;2023-04-25T12:39:38;12.70;99.90
816;DHT22;25928;51.062;13.752;2023-04-25T12:42:04;12.90;99.90
816;DHT22;25928;51.062;13.752;2023-04-25T12:44:30;13.30;99.90
816;DHT22;25928;51.062;13.752;2023-04-25T12:46:56;13.60;99.90
816;DHT22;25928;51.062;13.752;2023-04-25T12:49:22;13.90;99.90
816;DHT22;25928;51.062;13.752;2023-04-25T12:51:47;13.90;99.90
816;DHT22;25928;51.062;13.752;2023-04-25T12:54:13;13.90;99.90
816;DHT22;25928;51.062;13.752;2023-04-25T12:56:40;13.40;99.90
816;DHT22;25928;51.062;13.752;2023-04-25T12:59:06;13.00;99.90
816;DHT22;25928;51.062;13.752;2023-04-25T13:01:32;13.10;99.90
816;DHT22;25928;51.062;13.752;2023-04-25T13:03:58;13.20;99.90
816;DHT22;25928;51.062;13.752;2023-04-25T13:06:23;13.20;99.90
816;DHT22;25928;51.062;13.752;2023-04-25T13:08:49;13.20;99.90
816;DHT22;25928;51.062;13.752;2023-04-25T13:11:15;13.10;99.90
816;DHT22;25928;51.062;13.752;2023-04-25T13:13:41;12.80;99.90
816;DHT22;25928;51.062;13.752;2023-04-25T13:16:07;12.60;99.90
816;DHT22;25928;51.062;13.752;2023-04-25T13:18:34;12.50;99.90
816;DHT22;25928;51.062;13.752;2023-04-25T13:21:00;12.30;99.90
816;DHT22;25928;51.062;13.752;2023-04-25T13:23:27;12.30;99.90
816;DHT22;25928;51.062;13.752;2023-04-25T13:25:54;12.30;99.90
816;DHT22;25928;51.062;13.752;2023-04-25T13:28:20;12.30;99.90
816;DHT22;25928;51.062;13.752;2023-04-25T13:30:47;11.90;99.90
816;DHT22;25928;51.062;13.752;2023-04-25T13:33:14;11.70;99.90
816;DHT22;25928;51.062;13.752;2023-04-25T13:35:40;11.60;99.90
816;DHT22;25928;51.062;13.752;2023-04-25T13:38:05;11.50;99.90
816;DHT22;25928;51.062;13.752;2023-04-25T13:40:31;11.50;99.90
816;DHT22;25928;51.062;13.752;2023-04-25T13:42:57;11.40;99.90
816;DHT22;25928;51.062;13.752;2023-04-25T13:45:23;11.40;99.90
816;DHT22;25928;51.062;13.752;2023-04-25T13:47:49;11.40;99.90
816;DHT22;25928;51.062;13.752;2023-04-25T13:50:15;11.50;99.90
816;DHT22;25928;51.062;13.752;2023-04-25T13:52:41;11.50;99.90
816;DHT22;25928;51.062;13.752;2023-04-25T13:55:08;11.50;99.90
816;DHT22;25928;51.062;13.752;2023-04-25T13:57:34;11.50;99.90
816;DHT22;25928;51.062;13.752;2023-04-25T14:00:00;11.40;99.90
816;DHT22;25928;51.062;13.752;2023-04-25T14:02:30;11.30;99.90
816;DHT22;25928;51.062;13.752;2023-04-25T14:04:55;11.40;99.90
816;DHT22;25928;51.062;13.752;2023-04-25T14:07:21;11.30;99.90
816;DHT22;25928;51.062;13.752;2023-04-25T14:09:47;11.40;99.90
816;DHT22;25928;51.062;13.752;2023-04-25T14:12:12;11.50;99.90
816;DHT22;25928;51.062;13.752;2023-04-25T14:14:38;11.60;99.90
816;DHT22;25928;51.062;13.752;2023-04-25T14:17:04;11.50;99.90
816;DHT22;25928;51.062;13.752;2023-04-25T14:19:29;11.70;99.90
816;DHT22;25928;51.062;13.752;2023-04-25T14:21:55;11.90;99.90
816;DHT22;25928;51.062;13.752;2023-04-25T14:24:21;12.20;99.90
816;DHT22;25928;51.062;13.752;2023-04-25T14:26:47;12.50;99.90
816;DHT22;25928;51.062;13.752;2023-04-25T14:29:12;12.80;99.90
816;DHT22;25928;51.062;13.752;2023-04-25T14:31:39;13.40;99.90
816;DHT22;25928;51.062;13.752;2023-04-25T14:34:05;13.80;99.90
816;DHT22;25928;51.062;13.752;2023-04-25T14:36:31;13.60;99.90
816;DHT22;25928;51.062;13.752;2023-04-25T14:38:57;13.40;99.90
816;DHT22;25928;51.062;13.752;2023-04-25T14:41:25;13.10;99.90
816;DHT22;25928;51.062;13.752;2023-04-25T14:43:51;13.30;99.90
816;DHT22;25928;51.062;13.752;2023-04-25T14:46:18;13.80;99.90
816;DHT22;25928;51.062;13.752;2023-04-25T14:48:44;13.40;99.90
816;DHT22;25928;51.062;13.752;2023-04-25T14:51:10;13.10;99.90
816;DHT22;25928;51.062;13.752;2023-04-25T14:53:36;13.40;99.90
816;DHT22;25928;51.062;13.752;2023-04-25T14:56:02;13.30;99.90
816;DHT22;25928;51.062;13.752;2023-04-25T14:58:27;12.70;99.90
816;DHT22;25928;51.062;13.752;2023-04-25T15:01:00;12.60;99.90
816;DHT22;25928;51.062;13.752;2023-04-25T15:03:26;12.80;99.90
816;DHT22;25928;51.062;13.752;2023-04-25T15:05:54;13.00;99.90
816;DHT22;25928;51.062;13.752;2023-04-25T15:08:20;12.80;99.90
816;DHT22;25928;51.062;13.752;2023-04-25T15:10:46;12.80;99.90
816;DHT22;25928;51.062;13.752;2023-04-25T15:13:12;12.80;99.90
816;DHT22;25928;51.062;13.752;2023-04-25T15:15:38;12.50;99.90
816;DHT22;25928;51.062;13.752;2023-04-25T15:18:03;12.20;99.90
816;DHT22;25928;51.062;13.752;2023-04-25T15:20:29;12.10;99.90
816;DHT22;25928;51.062;13.752;2023-04-25T15:22:55;12.20;99.90
816;DHT22;25928;51.062;13.752;2023-04-25T15:25:21;12.10;99.90
816;DHT22;25928;51.062;13.752;2023-04-25T15:27:47;11.90;99.90
816;DHT22;25928;51.062;13.752;2023-04-25T15:30:17;11.90;99.90
816;DHT22;25928;51.062;13.752;2023-04-25T15:32:44;11.80;99.90
816;DHT22;25928;51.062;13.752;2023-04-25T15:35:10;11.70;99.90
816;DHT22;25928;51.062;13.752;2023-04-25T15:37:36;11.70;99.90
816;DHT22;25928;51.062;13.752;2023-04-25T15:40:15;11.70;99.90
816;DHT22;25928;51.062;13.752;2023-04-25T15:42:45;11.70;99.90
816;DHT22;25928;51.062;13.752;2023-04-25T15:45:23;11.50;99.90
816;DHT22;25928;51.062;13.752;2023-04-25T15:47:51;11.50;99.90
816;DHT22;25928;51.062;13.752;2023-04-25T15:50:18;11.50;99.90
816;DHT22;25928;51.062;13.752;2023-04-25T15:52:43;11.50;99.90